KBYG/BYG METAR and TAF weather

Enter ICAO airport designator
Station Type Date Time Source
KBYG METAR 2021/09/23 17:53 UTC NOAA

KBYG 231753Z AUTO 34010G20KT 10SM CLR 22/01 A3018 RMK AO2 SLP171 T02170006 10217 20150 50001


Station Type Date Time Source
KBYG Decoded METAR 2021/09/23 17:53 UTC NOAA

BUFFALO JOHNSON COUNTY AIRPORT , WY, United States (KBYG) 44-23N 106-43W 1497M
Sep 23, 2021 - 01:53 PM EDT / 2021.09.23 1753 UTC
Wind: from the NNW (340 degrees) at 12 MPH (10 KT) gusting to 23 MPH (20 KT):0
Visibility: 10 mile(s):0
Sky conditions: clear
Temperature: 71.1 F (21.7 C)
Dew Point: 33.1 F (0.6 C)
Relative Humidity: 24%
Pressure (altimeter): 30.18 in. Hg (1022 hPa)
Pressure tendency: 0.00 inches (0.1 hPa) higher than three hours ago
ob: KBYG 231753Z AUTO 34010G20KT 10SM CLR 22/01 A3018 RMK AO2 SLP171 T02170006 10217 20150 50001
cycle: 18

Station Type Date Time Source
KBYG TAF UTC NOAA

Error!

Example: see airport list